sensor_id;sensor_type;location;lat;lon;timestamp;P1;durP1;ratioP1;P2;durP2;ratioP2
22270;SDS011;11304;53.520;10.104;2022-10-18T00:01:48;18.45;;;11.00;;
22270;SDS011;11304;53.520;10.104;2022-10-18T00:04:14;15.85;;;10.23;;
22270;SDS011;11304;53.520;10.104;2022-10-18T00:06:40;18.90;;;9.82;;
22270;SDS011;11304;53.520;10.104;2022-10-18T00:09:06;12.88;;;9.63;;
22270;SDS011;11304;53.520;10.104;2022-10-18T00:11:31;17.02;;;9.80;;
22270;SDS011;11304;53.520;10.104;2022-10-18T00:13:57;16.02;;;9.75;;
22270;SDS011;11304;53.520;10.104;2022-10-18T00:16:23;14.50;;;8.85;;
22270;SDS011;11304;53.520;10.104;2022-10-18T00:18:49;17.10;;;9.02;;
22270;SDS011;11304;53.520;10.104;2022-10-18T00:21:19;15.45;;;8.95;;
22270;SDS011;11304;53.520;10.104;2022-10-18T00:23:47;14.65;;;10.35;;
22270;SDS011;11304;53.520;10.104;2022-10-18T00:26:17;21.30;;;13.45;;
22270;SDS011;11304;53.520;10.104;2022-10-18T00:28:45;18.52;;;12.73;;
22270;SDS011;11304;53.520;10.104;2022-10-18T00:31:16;18.08;;;11.25;;
22270;SDS011;11304;53.520;10.104;2022-10-18T00:33:54;16.70;;;11.18;;
22270;SDS011;11304;53.520;10.104;2022-10-18T00:36:21;14.85;;;10.77;;
22270;SDS011;11304;53.520;10.104;2022-10-18T00:38:48;19.45;;;11.68;;
22270;SDS011;11304;53.520;10.104;2022-10-18T00:41:15;14.77;;;9.25;;
22270;SDS011;11304;53.520;10.104;2022-10-18T00:44:03;17.45;;;12.73;;
22270;SDS011;11304;53.520;10.104;2022-10-18T00:46:32;17.60;;;11.93;;
22270;SDS011;11304;53.520;10.104;2022-10-18T00:49:04;18.90;;;11.98;;
22270;SDS011;11304;53.520;10.104;2022-10-18T00:51:39;15.90;;;11.30;;
22270;SDS011;11304;53.520;10.104;2022-10-18T00:54:20;15.45;;;10.57;;
22270;SDS011;11304;53.520;10.104;2022-10-18T00:56:47;18.88;;;11.57;;
22270;SDS011;11304;53.520;10.104;2022-10-18T00:59:14;17.25;;;12.65;;
22270;SDS011;11304;53.520;10.104;2022-10-18T01:01:41;15.53;;;11.03;;
22270;SDS011;11304;53.520;10.104;2022-10-18T01:04:07;19.80;;;11.82;;
22270;SDS011;11304;53.520;10.104;2022-10-18T01:06:34;21.40;;;14.23;;
22270;SDS011;11304;53.520;10.104;2022-10-18T01:14:53;22.55;;;13.20;;
22270;SDS011;11304;53.520;10.104;2022-10-18T01:27:57;19.95;;;13.15;;
22270;SDS011;11304;53.520;10.104;2022-10-18T01:36:50;26.08;;;16.52;;
22270;SDS011;11304;53.520;10.104;2022-10-18T01:38:59;24.52;;;15.77;;
22270;SDS011;11304;53.520;10.104;2022-10-18T01:41:29;28.63;;;15.88;;
22270;SDS011;11304;53.520;10.104;2022-10-18T01:44:00;20.27;;;14.38;;
22270;SDS011;11304;53.520;10.104;2022-10-18T01:46:29;25.08;;;15.80;;
22270;SDS011;11304;53.520;10.104;2022-10-18T01:48:56;23.65;;;16.27;;
22270;SDS011;11304;53.520;10.104;2022-10-18T01:51:23;26.08;;;17.35;;
22270;SDS011;11304;53.520;10.104;2022-10-18T01:53:56;25.17;;;16.63;;
22270;SDS011;11304;53.520;10.104;2022-10-18T01:59:21;23.73;;;15.75;;
22270;SDS011;11304;53.520;10.104;2022-10-18T02:09:54;26.38;;;16.25;;
22270;SDS011;11304;53.520;10.104;2022-10-18T02:12:25;26.40;;;17.88;;
22270;SDS011;11304;53.520;10.104;2022-10-18T02:14:54;30.60;;;19.75;;
22270;SDS011;11304;53.520;10.104;2022-10-18T02:17:21;24.95;;;18.35;;
22270;SDS011;11304;53.520;10.104;2022-10-18T02:19:51;30.20;;;17.70;;
22270;SDS011;11304;53.520;10.104;2022-10-18T02:22:19;27.13;;;18.15;;
22270;SDS011;11304;53.520;10.104;2022-10-18T02:24:48;28.67;;;18.63;;
22270;SDS011;11304;53.520;10.104;2022-10-18T02:27:17;31.92;;;20.52;;
22270;SDS011;11304;53.520;10.104;2022-10-18T02:29:43;33.50;;;20.85;;
22270;SDS011;11304;53.520;10.104;2022-10-18T02:35:33;26.80;;;17.80;;
22270;SDS011;11304;53.520;10.104;2022-10-18T02:38:03;30.45;;;19.08;;
22270;SDS011;11304;53.520;10.104;2022-10-18T02:40:31;30.23;;;19.48;;
22270;SDS011;11304;53.520;10.104;2022-10-18T02:42:57;27.63;;;19.55;;
22270;SDS011;11304;53.520;10.104;2022-10-18T02:45:23;31.75;;;21.77;;
22270;SDS011;11304;53.520;10.104;2022-10-18T02:47:50;28.58;;;20.05;;
22270;SDS011;11304;53.520;10.104;2022-10-18T02:50:16;29.13;;;20.15;;
22270;SDS011;11304;53.520;10.104;2022-10-18T02:52:42;28.70;;;20.00;;
22270;SDS011;11304;53.520;10.104;2022-10-18T02:55:08;32.15;;;20.45;;
22270;SDS011;11304;53.520;10.104;2022-10-18T02:57:34;28.10;;;19.42;;
22270;SDS011;11304;53.520;10.104;2022-10-18T03:00:00;23.52;;;17.92;;
22270;SDS011;11304;53.520;10.104;2022-10-18T03:02:27;25.70;;;17.98;;
22270;SDS011;11304;53.520;10.104;2022-10-18T03:04:53;29.35;;;18.83;;
22270;SDS011;11304;53.520;10.104;2022-10-18T03:07:18;30.42;;;20.10;;
22270;SDS011;11304;53.520;10.104;2022-10-18T03:09:44;25.67;;;19.23;;
22270;SDS011;11304;53.520;10.104;2022-10-18T03:12:10;27.60;;;19.15;;
22270;SDS011;11304;53.520;10.104;2022-10-18T03:14:35;29.85;;;20.98;;
22270;SDS011;11304;53.520;10.104;2022-10-18T03:17:01;39.10;;;21.98;;
22270;SDS011;11304;53.520;10.104;2022-10-18T03:19:27;38.35;;;20.05;;
22270;SDS011;11304;53.520;10.104;2022-10-18T03:21:53;33.00;;;19.20;;
22270;SDS011;11304;53.520;10.104;2022-10-18T03:24:18;32.92;;;18.25;;
22270;SDS011;11304;53.520;10.104;2022-10-18T03:26:44;28.23;;;18.13;;
22270;SDS011;11304;53.520;10.104;2022-10-18T03:29:10;28.20;;;18.77;;
22270;SDS011;11304;53.520;10.104;2022-10-18T03:31:35;28.98;;;16.77;;
22270;SDS011;11304;53.520;10.104;2022-10-18T03:34:01;27.83;;;17.05;;
22270;SDS011;11304;53.520;10.104;2022-10-18T03:36:27;33.20;;;19.58;;
22270;SDS011;11304;53.520;10.104;2022-10-18T03:38:53;27.23;;;15.05;;
22270;SDS011;11304;53.520;10.104;2022-10-18T03:41:18;25.77;;;16.95;;
22270;SDS011;11304;53.520;10.104;2022-10-18T03:43:44;23.42;;;16.73;;
22270;SDS011;11304;53.520;10.104;2022-10-18T03:46:10;34.05;;;21.23;;
22270;SDS011;11304;53.520;10.104;2022-10-18T03:48:36;27.23;;;17.92;;
22270;SDS011;11304;53.520;10.104;2022-10-18T03:51:02;33.00;;;20.08;;
22270;SDS011;11304;53.520;10.104;2022-10-18T03:53:28;27.45;;;18.80;;
22270;SDS011;11304;53.520;10.104;2022-10-18T03:55:54;26.92;;;18.70;;
22270;SDS011;11304;53.520;10.104;2022-10-18T03:58:20;31.80;;;21.10;;
22270;SDS011;11304;53.520;10.104;2022-10-18T04:00:50;29.35;;;20.23;;
22270;SDS011;11304;53.520;10.104;2022-10-18T04:03:17;29.25;;;20.20;;
22270;SDS011;11304;53.520;10.104;2022-10-18T04:05:44;26.02;;;17.33;;
22270;SDS011;11304;53.520;10.104;2022-10-18T04:08:11;26.33;;;18.75;;
22270;SDS011;11304;53.520;10.104;2022-10-18T04:10:38;31.90;;;20.77;;
22270;SDS011;11304;53.520;10.104;2022-10-18T04:13:04;32.50;;;21.70;;
22270;SDS011;11304;53.520;10.104;2022-10-18T04:15:30;36.05;;;21.88;;
22270;SDS011;11304;53.520;10.104;2022-10-18T04:17:56;26.77;;;18.70;;
22270;SDS011;11304;53.520;10.104;2022-10-18T04:20:23;26.67;;;17.98;;
22270;SDS011;11304;53.520;10.104;2022-10-18T04:22:49;31.10;;;20.83;;
22270;SDS011;11304;53.520;10.104;2022-10-18T04:25:15;27.25;;;19.50;;
22270;SDS011;11304;53.520;10.104;2022-10-18T04:27:42;21.13;;;16.92;;
22270;SDS011;11304;53.520;10.104;2022-10-18T04:30:08;27.75;;;17.40;;
22270;SDS011;11304;53.520;10.104;2022-10-18T04:32:34;23.27;;;16.50;;
22270;SDS011;11304;53.520;10.104;2022-10-18T04:35:03;18.98;;;14.25;;
22270;SDS011;11304;53.520;10.104;2022-10-18T04:37:30;15.93;;;11.60;;
22270;SDS011;11304;53.520;10.104;2022-10-18T04:39:56;15.15;;;11.65;;
22270;SDS011;11304;53.520;10.104;2022-10-18T04:42:21;18.52;;;12.70;;
22270;SDS011;11304;53.520;10.104;2022-10-18T04:44:47;25.02;;;16.98;;
22270;SDS011;11304;53.520;10.104;2022-10-18T04:47:13;23.42;;;16.85;;
22270;SDS011;11304;53.520;10.104;2022-10-18T04:49:39;20.92;;;16.42;;
22270;SDS011;11304;53.520;10.104;2022-10-18T04:52:05;27.20;;;19.85;;
22270;SDS011;11304;53.520;10.104;2022-10-18T04:54:31;27.23;;;18.63;;
22270;SDS011;11304;53.520;10.104;2022-10-18T04:56:57;25.85;;;18.98;;
22270;SDS011;11304;53.520;10.104;2022-10-18T04:59:22;26.30;;;19.02;;
22270;SDS011;11304;53.520;10.104;2022-10-18T05:01:48;22.35;;;17.67;;
22270;SDS011;11304;53.520;10.104;2022-10-18T05:04:14;20.50;;;15.57;;
22270;SDS011;11304;53.520;10.104;2022-10-18T05:06:40;21.55;;;15.23;;
22270;SDS011;11304;53.520;10.104;2022-10-18T05:09:05;21.70;;;16.33;;
22270;SDS011;11304;53.520;10.104;2022-10-18T05:11:31;34.35;;;22.17;;
22270;SDS011;11304;53.520;10.104;2022-10-18T05:13:57;36.45;;;23.58;;
22270;SDS011;11304;53.520;10.104;2022-10-18T05:16:22;33.58;;;21.95;;
22270;SDS011;11304;53.520;10.104;2022-10-18T05:18:48;30.33;;;20.85;;
22270;SDS011;11304;53.520;10.104;2022-10-18T05:21:14;35.50;;;22.23;;
22270;SDS011;11304;53.520;10.104;2022-10-18T05:23:40;28.83;;;21.15;;
22270;SDS011;11304;53.520;10.104;2022-10-18T05:26:06;36.65;;;22.73;;
22270;SDS011;11304;53.520;10.104;2022-10-18T05:28:32;29.92;;;22.00;;
22270;SDS011;11304;53.520;10.104;2022-10-18T05:31:03;32.67;;;22.42;;
22270;SDS011;11304;53.520;10.104;2022-10-18T05:33:30;34.05;;;21.77;;
22270;SDS011;11304;53.520;10.104;2022-10-18T05:35:56;33.80;;;21.83;;
22270;SDS011;11304;53.520;10.104;2022-10-18T05:38:22;32.75;;;22.77;;
22270;SDS011;11304;53.520;10.104;2022-10-18T05:40:48;42.03;;;26.58;;
22270;SDS011;11304;53.520;10.104;2022-10-18T05:43:14;40.38;;;26.30;;
22270;SDS011;11304;53.520;10.104;2022-10-18T05:45:45;47.83;;;27.80;;
22270;SDS011;11304;53.520;10.104;2022-10-18T05:48:12;49.05;;;28.77;;
22270;SDS011;11304;53.520;10.104;2022-10-18T05:50:38;44.53;;;28.83;;
22270;SDS011;11304;53.520;10.104;2022-10-18T05:53:04;52.30;;;26.52;;
22270;SDS011;11304;53.520;10.104;2022-10-18T05:55:29;51.72;;;28.38;;
22270;SDS011;11304;53.520;10.104;2022-10-18T05:57:55;41.75;;;26.02;;
22270;SDS011;11304;53.520;10.104;2022-10-18T06:00:21;42.58;;;26.85;;
22270;SDS011;11304;53.520;10.104;2022-10-18T06:02:46;46.47;;;27.02;;
22270;SDS011;11304;53.520;10.104;2022-10-18T06:05:12;41.80;;;26.50;;
22270;SDS011;11304;53.520;10.104;2022-10-18T06:07:38;42.88;;;25.30;;
22270;SDS011;11304;53.520;10.104;2022-10-18T06:10:04;37.47;;;24.27;;
22270;SDS011;11304;53.520;10.104;2022-10-18T06:12:30;45.53;;;24.65;;
22270;SDS011;11304;53.520;10.104;2022-10-18T06:14:55;43.58;;;23.73;;
22270;SDS011;11304;53.520;10.104;2022-10-18T06:17:21;47.13;;;24.52;;
22270;SDS011;11304;53.520;10.104;2022-10-18T06:19:47;43.05;;;24.40;;
22270;SDS011;11304;53.520;10.104;2022-10-18T06:22:12;37.15;;;21.77;;
22270;SDS011;11304;53.520;10.104;2022-10-18T06:24:38;42.33;;;23.77;;
22270;SDS011;11304;53.520;10.104;2022-10-18T06:27:04;39.55;;;22.88;;
22270;SDS011;11304;53.520;10.104;2022-10-18T06:29:34;35.50;;;23.10;;
22270;SDS011;11304;53.520;10.104;2022-10-18T06:32:00;42.15;;;21.92;;
22270;SDS011;11304;53.520;10.104;2022-10-18T06:34:26;34.63;;;21.40;;
22270;SDS011;11304;53.520;10.104;2022-10-18T06:36:51;45.38;;;24.48;;
22270;SDS011;11304;53.520;10.104;2022-10-18T06:39:17;41.58;;;23.35;;
22270;SDS011;11304;53.520;10.104;2022-10-18T06:41:43;44.40;;;23.83;;
22270;SDS011;11304;53.520;10.104;2022-10-18T06:44:09;36.45;;;21.65;;
22270;SDS011;11304;53.520;10.104;2022-10-18T06:46:41;36.95;;;22.60;;
22270;SDS011;11304;53.520;10.104;2022-10-18T06:49:08;41.85;;;22.70;;
22270;SDS011;11304;53.520;10.104;2022-10-18T06:51:34;35.03;;;21.65;;
22270;SDS011;11304;53.520;10.104;2022-10-18T06:53:59;36.17;;;21.65;;
22270;SDS011;11304;53.520;10.104;2022-10-18T06:56:25;36.78;;;20.48;;
22270;SDS011;11304;53.520;10.104;2022-10-18T06:58:51;35.50;;;21.13;;
22270;SDS011;11304;53.520;10.104;2022-10-18T07:01:17;35.83;;;22.13;;
22270;SDS011;11304;53.520;10.104;2022-10-18T07:03:44;36.65;;;22.30;;
22270;SDS011;11304;53.520;10.104;2022-10-18T07:06:12;33.75;;;20.77;;
22270;SDS011;11304;53.520;10.104;2022-10-18T07:08:39;39.22;;;21.73;;
22270;SDS011;11304;53.520;10.104;2022-10-18T07:11:05;37.53;;;23.30;;
22270;SDS011;11304;53.520;10.104;2022-10-18T07:13:32;35.78;;;22.38;;
22270;SDS011;11304;53.520;10.104;2022-10-18T07:16:08;31.23;;;20.52;;
22270;SDS011;11304;53.520;10.104;2022-10-18T07:18:37;38.40;;;20.70;;
22270;SDS011;11304;53.520;10.104;2022-10-18T07:21:04;31.13;;;19.50;;
22270;SDS011;11304;53.520;10.104;2022-10-18T07:23:32;37.67;;;20.65;;
22270;SDS011;11304;53.520;10.104;2022-10-18T07:25:59;33.55;;;20.90;;
22270;SDS011;11304;53.520;10.104;2022-10-18T07:28:25;32.83;;;19.88;;
22270;SDS011;11304;53.520;10.104;2022-10-18T07:30:52;36.10;;;21.05;;
22270;SDS011;11304;53.520;10.104;2022-10-18T07:33:18;33.88;;;20.38;;
22270;SDS011;11304;53.520;10.104;2022-10-18T07:35:45;35.90;;;20.92;;
22270;SDS011;11304;53.520;10.104;2022-10-18T07:38:11;38.45;;;20.02;;
22270;SDS011;11304;53.520;10.104;2022-10-18T07:40:37;32.20;;;19.35;;
22270;SDS011;11304;53.520;10.104;2022-10-18T07:43:03;30.33;;;17.90;;
22270;SDS011;11304;53.520;10.104;2022-10-18T07:45:28;28.13;;;17.33;;
22270;SDS011;11304;53.520;10.104;2022-10-18T07:47:55;35.75;;;18.17;;
22270;SDS011;11304;53.520;10.104;2022-10-18T07:50:21;33.60;;;18.83;;
22270;SDS011;11304;53.520;10.104;2022-10-18T07:52:47;34.67;;;18.50;;
22270;SDS011;11304;53.520;10.104;2022-10-18T07:55:13;25.77;;;17.35;;
22270;SDS011;11304;53.520;10.104;2022-10-18T07:57:38;26.85;;;16.08;;
22270;SDS011;11304;53.520;10.104;2022-10-18T08:00:04;31.85;;;18.38;;
22270;SDS011;11304;53.520;10.104;2022-10-18T08:02:32;40.80;;;19.40;;
22270;SDS011;11304;53.520;10.104;2022-10-18T08:04:58;35.63;;;17.38;;
22270;SDS011;11304;53.520;10.104;2022-10-18T08:07:24;31.83;;;17.95;;
22270;SDS011;11304;53.520;10.104;2022-10-18T08:09:50;35.53;;;17.42;;
22270;SDS011;11304;53.520;10.104;2022-10-18T08:12:16;30.23;;;16.80;;
22270;SDS011;11304;53.520;10.104;2022-10-18T08:14:41;39.30;;;18.58;;
22270;SDS011;11304;53.520;10.104;2022-10-18T08:17:07;32.45;;;17.80;;
22270;SDS011;11304;53.520;10.104;2022-10-18T08:19:33;36.03;;;17.63;;
22270;SDS011;11304;53.520;10.104;2022-10-18T08:21:59;38.03;;;18.25;;
22270;SDS011;11304;53.520;10.104;2022-10-18T08:24:25;33.55;;;15.35;;
22270;SDS011;11304;53.520;10.104;2022-10-18T08:26:50;38.28;;;16.95;;
22270;SDS011;11304;53.520;10.104;2022-10-18T08:29:16;31.25;;;16.48;;
22270;SDS011;11304;53.520;10.104;2022-10-18T08:31:42;35.55;;;16.15;;
22270;SDS011;11304;53.520;10.104;2022-10-18T08:34:07;29.83;;;15.98;;
22270;SDS011;11304;53.520;10.104;2022-10-18T08:36:33;31.60;;;15.63;;
22270;SDS011;11304;53.520;10.104;2022-10-18T08:38:59;34.10;;;15.02;;
22270;SDS011;11304;53.520;10.104;2022-10-18T08:42:10;25.95;;;14.32;;
22270;SDS011;11304;53.520;10.104;2022-10-18T08:46:57;28.58;;;15.80;;
22270;SDS011;11304;53.520;10.104;2022-10-18T08:49:45;24.80;;;15.20;;
22270;SDS011;11304;53.520;10.104;2022-10-18T08:52:21;29.98;;;15.63;;
22270;SDS011;11304;53.520;10.104;2022-10-18T08:57:46;29.43;;;15.87;;
22270;SDS011;11304;53.520;10.104;2022-10-18T09:00:17;31.00;;;17.52;;
22270;SDS011;11304;53.520;10.104;2022-10-18T09:02:52;30.05;;;17.83;;
22270;SDS011;11304;53.520;10.104;2022-10-18T09:05:28;30.25;;;16.63;;
22270;SDS011;11304;53.520;10.104;2022-10-18T09:22:05;33.90;;;19.83;;
22270;SDS011;11304;53.520;10.104;2022-10-18T09:24:43;31.67;;;20.65;;
22270;SDS011;11304;53.520;10.104;2022-10-18T09:27:17;29.08;;;17.30;;
22270;SDS011;11304;53.520;10.104;2022-10-18T09:34:51;25.00;;;15.23;;
22270;SDS011;11304;53.520;10.104;2022-10-18T09:37:21;31.80;;;14.65;;
22270;SDS011;11304;53.520;10.104;2022-10-18T09:39:49;30.95;;;14.15;;
22270;SDS011;11304;53.520;10.104;2022-10-18T09:42:24;34.20;;;13.20;;
22270;SDS011;11304;53.520;10.104;2022-10-18T09:44:54;22.55;;;11.10;;
22270;SDS011;11304;53.520;10.104;2022-10-18T09:50:40;23.40;;;10.60;;
22270;SDS011;11304;53.520;10.104;2022-10-18T09:53:11;22.02;;;11.23;;
22270;SDS011;11304;53.520;10.104;2022-10-18T09:55:53;23.52;;;10.18;;
22270;SDS011;11304;53.520;10.104;2022-10-18T09:58:20;25.05;;;10.27;;
22270;SDS011;11304;53.520;10.104;2022-10-18T10:00:50;21.08;;;9.73;;
22270;SDS011;11304;53.520;10.104;2022-10-18T10:03:17;18.35;;;8.35;;
22270;SDS011;11304;53.520;10.104;2022-10-18T10:05:43;16.20;;;7.60;;
22270;SDS011;11304;53.520;10.104;2022-10-18T10:08:10;20.42;;;9.20;;
22270;SDS011;11304;53.520;10.104;2022-10-18T10:10:40;16.80;;;7.97;;
22270;SDS011;11304;53.520;10.104;2022-10-18T10:13:16;16.00;;;6.95;;
22270;SDS011;11304;53.520;10.104;2022-10-18T10:20:55;16.75;;;6.43;;
22270;SDS011;11304;53.520;10.104;2022-10-18T10:23:23;15.35;;;6.95;;
22270;SDS011;11304;53.520;10.104;2022-10-18T10:25:51;14.25;;;7.25;;
22270;SDS011;11304;53.520;10.104;2022-10-18T10:28:19;14.07;;;6.38;;
22270;SDS011;11304;53.520;10.104;2022-10-18T10:30:46;15.45;;;7.28;;
22270;SDS011;11304;53.520;10.104;2022-10-18T10:33:30;14.50;;;7.13;;
22270;SDS011;11304;53.520;10.104;2022-10-18T10:35:56;18.23;;;7.32;;
22270;SDS011;11304;53.520;10.104;2022-10-18T10:38:23;15.15;;;7.90;;
22270;SDS011;11304;53.520;10.104;2022-10-18T10:40:50;16.38;;;7.68;;
22270;SDS011;11304;53.520;10.104;2022-10-18T10:43:31;17.63;;;9.00;;
22270;SDS011;11304;53.520;10.104;2022-10-18T10:48:25;14.32;;;8.10;;
22270;SDS011;11304;53.520;10.104;2022-10-18T10:50:56;18.05;;;8.93;;
22270;SDS011;11304;53.520;10.104;2022-10-18T10:53:34;21.00;;;10.27;;
22270;SDS011;11304;53.520;10.104;2022-10-18T10:56:01;22.88;;;11.35;;
22270;SDS011;11304;53.520;10.104;2022-10-18T10:58:29;21.55;;;10.93;;
22270;SDS011;11304;53.520;10.104;2022-10-18T11:00:58;21.15;;;12.07;;
22270;SDS011;11304;53.520;10.104;2022-10-18T11:03:44;25.20;;;11.30;;
22270;SDS011;11304;53.520;10.104;2022-10-18T11:06:15;23.20;;;12.27;;
22270;SDS011;11304;53.520;10.104;2022-10-18T11:08:51;24.30;;;10.50;;
22270;SDS011;11304;53.520;10.104;2022-10-18T11:11:28;17.65;;;9.90;;
22270;SDS011;11304;53.520;10.104;2022-10-18T11:16:27;18.25;;;9.40;;
22270;SDS011;11304;53.520;10.104;2022-10-18T11:18:54;18.17;;;9.18;;
22270;SDS011;11304;53.520;10.104;2022-10-18T11:21:22;19.92;;;9.63;;
22270;SDS011;11304;53.520;10.104;2022-10-18T11:23:51;27.70;;;9.75;;
22270;SDS011;11304;53.520;10.104;2022-10-18T11:29:21;18.25;;;8.45;;
22270;SDS011;11304;53.520;10.104;2022-10-18T11:55:04;14.90;;;4.45;;
22270;SDS011;11304;53.520;10.104;2022-10-18T12:00:26;15.95;;;5.28;;
22270;SDS011;11304;53.520;10.104;2022-10-18T12:02:58;18.77;;;5.70;;
22270;SDS011;11304;53.520;10.104;2022-10-18T12:05:33;19.20;;;5.50;;
22270;SDS011;11304;53.520;10.104;2022-10-18T12:10:27;14.75;;;4.75;;
22270;SDS011;11304;53.520;10.104;2022-10-18T12:12:57;19.75;;;5.05;;
22270;SDS011;11304;53.520;10.104;2022-10-18T12:15:27;26.70;;;6.13;;
22270;SDS011;11304;53.520;10.104;2022-10-18T12:17:55;19.50;;;6.00;;
22270;SDS011;11304;53.520;10.104;2022-10-18T12:23:32;12.88;;;5.20;;
22270;SDS011;11304;53.520;10.104;2022-10-18T12:26:01;14.65;;;5.20;;
22270;SDS011;11304;53.520;10.104;2022-10-18T12:40:00;21.92;;;5.45;;
22270;SDS011;11304;53.520;10.104;2022-10-18T12:42:53;21.67;;;5.90;;
22270;SDS011;11304;53.520;10.104;2022-10-18T12:45:24;20.05;;;5.75;;
22270;SDS011;11304;53.520;10.104;2022-10-18T12:50:57;17.00;;;4.97;;
22270;SDS011;11304;53.520;10.104;2022-10-18T12:53:27;20.33;;;5.00;;
22270;SDS011;11304;53.520;10.104;2022-10-18T12:55:54;17.48;;;3.72;;
22270;SDS011;11304;53.520;10.104;2022-10-18T12:58:39;13.90;;;3.15;;
22270;SDS011;11304;53.520;10.104;2022-10-18T13:01:06;18.02;;;4.00;;
22270;SDS011;11304;53.520;10.104;2022-10-18T13:03:39;14.48;;;3.28;;
22270;SDS011;11304;53.520;10.104;2022-10-18T13:06:15;12.63;;;3.22;;
22270;SDS011;11304;53.520;10.104;2022-10-18T13:08:41;17.67;;;3.55;;
22270;SDS011;11304;53.520;10.104;2022-10-18T13:19:46;14.30;;;2.92;;
22270;SDS011;11304;53.520;10.104;2022-10-18T13:27:43;16.52;;;3.00;;
22270;SDS011;11304;53.520;10.104;2022-10-18T13:38:02;15.05;;;2.53;;
22270;SDS011;11304;53.520;10.104;2022-10-18T13:40:30;11.65;;;2.47;;
22270;SDS011;11304;53.520;10.104;2022-10-18T13:42:56;10.07;;;1.85;;
22270;SDS011;11304;53.520;10.104;2022-10-18T13:45:51;15.63;;;2.67;;
22270;SDS011;11304;53.520;10.104;2022-10-18T13:48:43;11.95;;;2.40;;
22270;SDS011;11304;53.520;10.104;2022-10-18T13:56:43;14.00;;;2.50;;
22270;SDS011;11304;53.520;10.104;2022-10-18T14:02:13;10.32;;;1.85;;
22270;SDS011;11304;53.520;10.104;2022-10-18T14:07:29;12.10;;;2.47;;
22270;SDS011;11304;53.520;10.104;2022-10-18T14:09:56;12.45;;;2.33;;
22270;SDS011;11304;53.520;10.104;2022-10-18T14:15:20;13.95;;;2.30;;
22270;SDS011;11304;53.520;10.104;2022-10-18T14:17:50;12.73;;;2.55;;
22270;SDS011;11304;53.520;10.104;2022-10-18T14:20:25;13.55;;;2.22;;
22270;SDS011;11304;53.520;10.104;2022-10-18T14:25:50;21.27;;;2.85;;
22270;SDS011;11304;53.520;10.104;2022-10-18T14:28:20;14.15;;;2.03;;
22270;SDS011;11304;53.520;10.104;2022-10-18T14:36:14;18.95;;;2.85;;
22270;SDS011;11304;53.520;10.104;2022-10-18T14:39:03;13.63;;;2.42;;
22270;SDS011;11304;53.520;10.104;2022-10-18T14:46:49;14.63;;;2.28;;
22270;SDS011;11304;53.520;10.104;2022-10-18T14:49:25;13.45;;;2.53;;
22270;SDS011;11304;53.520;10.104;2022-10-18T14:51:52;16.48;;;2.85;;
22270;SDS011;11304;53.520;10.104;2022-10-18T14:54:31;11.60;;;2.50;;
22270;SDS011;11304;53.520;10.104;2022-10-18T14:57:01;9.95;;;1.95;;
22270;SDS011;11304;53.520;10.104;2022-10-18T14:59:29;9.52;;;2.22;;
22270;SDS011;11304;53.520;10.104;2022-10-18T15:02:02;13.40;;;2.30;;
22270;SDS011;11304;53.520;10.104;2022-10-18T15:04:36;12.52;;;2.22;;
22270;SDS011;11304;53.520;10.104;2022-10-18T15:07:03;15.77;;;3.00;;
22270;SDS011;11304;53.520;10.104;2022-10-18T15:09:30;14.20;;;2.17;;
22270;SDS011;11304;53.520;10.104;2022-10-18T15:11:59;11.68;;;2.28;;
22270;SDS011;11304;53.520;10.104;2022-10-18T15:14:27;15.32;;;2.42;;
22270;SDS011;11304;53.520;10.104;2022-10-18T15:16:58;19.90;;;3.03;;
22270;SDS011;11304;53.520;10.104;2022-10-18T15:19:33;16.13;;;2.75;;
22270;SDS011;11304;53.520;10.104;2022-10-18T15:22:07;14.25;;;2.22;;
22270;SDS011;11304;53.520;10.104;2022-10-18T15:24:35;14.15;;;2.75;;
22270;SDS011;11304;53.520;10.104;2022-10-18T15:27:11;17.50;;;2.53;;
22270;SDS011;11304;53.520;10.104;2022-10-18T15:29:39;17.63;;;2.28;;
22270;SDS011;11304;53.520;10.104;2022-10-18T15:32:14;12.80;;;2.58;;
22270;SDS011;11304;53.520;10.104;2022-10-18T15:34:43;14.93;;;2.78;;
22270;SDS011;11304;53.520;10.104;2022-10-18T15:37:16;15.10;;;3.08;;
22270;SDS011;11304;53.520;10.104;2022-10-18T15:39:49;18.52;;;2.70;;
22270;SDS011;11304;53.520;10.104;2022-10-18T15:42:47;13.57;;;2.85;;
22270;SDS011;11304;53.520;10.104;2022-10-18T15:47:57;12.02;;;2.30;;
22270;SDS011;11304;53.520;10.104;2022-10-18T15:50:42;10.85;;;2.70;;
22270;SDS011;11304;53.520;10.104;2022-10-18T15:55:52;17.15;;;2.75;;
22270;SDS011;11304;53.520;10.104;2022-10-18T15:58:24;10.32;;;2.13;;
22270;SDS011;11304;53.520;10.104;2022-10-18T16:01:14;14.07;;;2.58;;
22270;SDS011;11304;53.520;10.104;2022-10-18T16:03:56;15.98;;;2.53;;
22270;SDS011;11304;53.520;10.104;2022-10-18T16:06:23;6.68;;;1.95;;
22270;SDS011;11304;53.520;10.104;2022-10-18T16:08:49;9.65;;;2.17;;
22270;SDS011;11304;53.520;10.104;2022-10-18T16:11:18;9.93;;;2.03;;
22270;SDS011;11304;53.520;10.104;2022-10-18T16:13:45;10.63;;;2.05;;
22270;SDS011;11304;53.520;10.104;2022-10-18T16:16:22;10.30;;;1.98;;
22270;SDS011;11304;53.520;10.104;2022-10-18T16:18:49;8.50;;;2.28;;
22270;SDS011;11304;53.520;10.104;2022-10-18T16:21:20;11.55;;;2.20;;
22270;SDS011;11304;53.520;10.104;2022-10-18T16:23:48;13.80;;;2.60;;
22270;SDS011;11304;53.520;10.104;2022-10-18T16:26:14;10.60;;;1.92;;
22270;SDS011;11304;53.520;10.104;2022-10-18T16:28:40;11.82;;;2.45;;
22270;SDS011;11304;53.520;10.104;2022-10-18T16:31:08;16.15;;;2.22;;
22270;SDS011;11304;53.520;10.104;2022-10-18T16:33:38;9.02;;;1.83;;
22270;SDS011;11304;53.520;10.104;2022-10-18T16:36:04;10.65;;;2.15;;
22270;SDS011;11304;53.520;10.104;2022-10-18T16:38:31;7.10;;;1.73;;
22270;SDS011;11304;53.520;10.104;2022-10-18T16:43:25;13.13;;;2.53;;
22270;SDS011;11304;53.520;10.104;2022-10-18T16:45:51;12.15;;;2.33;;
22270;SDS011;11304;53.520;10.104;2022-10-18T16:48:19;13.23;;;2.28;;
22270;SDS011;11304;53.520;10.104;2022-10-18T16:53:13;14.10;;;2.40;;
22270;SDS011;11304;53.520;10.104;2022-10-18T16:55:40;14.50;;;2.60;;
22270;SDS011;11304;53.520;10.104;2022-10-18T16:58:07;14.40;;;2.55;;
22270;SDS011;11304;53.520;10.104;2022-10-18T17:00:39;14.38;;;2.33;;
22270;SDS011;11304;53.520;10.104;2022-10-18T17:03:05;13.07;;;2.17;;
22270;SDS011;11304;53.520;10.104;2022-10-18T17:05:32;15.52;;;3.10;;
22270;SDS011;11304;53.520;10.104;2022-10-18T17:07:58;13.18;;;2.47;;
22270;SDS011;11304;53.520;10.104;2022-10-18T17:10:24;11.38;;;1.95;;
22270;SDS011;11304;53.520;10.104;2022-10-18T17:12:51;15.77;;;2.83;;
22270;SDS011;11304;53.520;10.104;2022-10-18T17:15:18;13.88;;;2.30;;
22270;SDS011;11304;53.520;10.104;2022-10-18T17:17:44;14.45;;;2.45;;
22270;SDS011;11304;53.520;10.104;2022-10-18T17:20:15;13.85;;;2.53;;
22270;SDS011;11304;53.520;10.104;2022-10-18T17:22:47;13.57;;;2.42;;
22270;SDS011;11304;53.520;10.104;2022-10-18T17:25:13;13.60;;;2.30;;
22270;SDS011;11304;53.520;10.104;2022-10-18T17:27:41;9.32;;;1.70;;